sensor_id;sensor_type;location;lat;lon;timestamp;pressure;altitude;pressure_sealevel;temperature;humidity
12247;BME280;6186;52.022;4.692;2023-12-20T00:02:03;101765.84;;;7.78;100.00
12247;BME280;6186;52.022;4.692;2023-12-20T00:04:28;101762.34;;;7.76;100.00
12247;BME280;6186;52.022;4.692;2023-12-20T00:06:54;101762.34;;;7.75;100.00
12247;BME280;6186;52.022;4.692;2023-12-20T00:09:19;101759.72;;;7.75;100.00
12247;BME280;6186;52.022;4.692;2023-12-20T00:11:44;101751.88;;;7.73;100.00
12247;BME280;6186;52.022;4.692;2023-12-20T00:14:09;101758.00;;;7.72;100.00
12247;BME280;6186;52.022;4.692;2023-12-20T00:16:34;101770.22;;;7.72;100.00
12247;BME280;6186;52.022;4.692;2023-12-20T00:19:00;101768.47;;;7.74;100.00
12247;BME280;6186;52.022;4.692;2023-12-20T00:21:25;101765.84;;;7.77;100.00
12247;BME280;6186;52.022;4.692;2023-12-20T00:23:50;101770.22;;;7.79;100.00
12247;BME280;6186;52.022;4.692;2023-12-20T00:26:15;101767.59;;;7.81;100.00
12247;BME280;6186;52.022;4.692;2023-12-20T00:28:41;101765.84;;;7.80;100.00
12247;BME280;6186;52.022;4.692;2023-12-20T00:31:06;101766.72;;;7.83;100.00
12247;BME280;6186;52.022;4.692;2023-12-20T00:33:31;101769.34;;;7.85;100.00
12247;BME280;6186;52.022;4.692;2023-12-20T00:35:57;101761.47;;;7.86;100.00
12247;BME280;6186;52.022;4.692;2023-12-20T00:38:22;101762.34;;;7.87;100.00
12247;BME280;6186;52.022;4.692;2023-12-20T00:40:47;101764.97;;;7.87;100.00
12247;BME280;6186;52.022;4.692;2023-12-20T00:43:12;101764.97;;;7.88;100.00
12247;BME280;6186;52.022;4.692;2023-12-20T00:45:37;101762.34;;;7.88;100.00
12247;BME280;6186;52.022;4.692;2023-12-20T00:48:03;101769.34;;;7.91;100.00
12247;BME280;6186;52.022;4.692;2023-12-20T00:50:28;101767.59;;;7.91;100.00
12247;BME280;6186;52.022;4.692;2023-12-20T00:52:53;101773.72;;;7.92;100.00
12247;BME280;6186;52.022;4.692;2023-12-20T00:55:19;101769.34;;;7.92;100.00
12247;BME280;6186;52.022;4.692;2023-12-20T00:57:44;101771.09;;;7.93;100.00
12247;BME280;6186;52.022;4.692;2023-12-20T01:00:09;101768.50;;;7.95;100.00
12247;BME280;6186;52.022;4.692;2023-12-20T01:02:35;101759.72;;;7.97;100.00
12247;BME280;6186;52.022;4.692;2023-12-20T01:05:00;101758.88;;;7.98;100.00
12247;BME280;6186;52.022;4.692;2023-12-20T01:07:25;101762.34;;;7.99;100.00
12247;BME280;6186;52.022;4.692;2023-12-20T01:09:50;101772.84;;;7.99;100.00
12247;BME280;6186;52.022;4.692;2023-12-20T01:12:16;101776.34;;;7.99;100.00
12247;BME280;6186;52.022;4.692;2023-12-20T01:14:41;101762.34;;;7.97;100.00
12247;BME280;6186;52.022;4.692;2023-12-20T01:17:06;101767.59;;;7.97;100.00
12247;BME280;6186;52.022;4.692;2023-12-20T01:19:31;101768.47;;;7.98;100.00
12247;BME280;6186;52.022;4.692;2023-12-20T01:21:57;101771.97;;;7.97;100.00
12247;BME280;6186;52.022;4.692;2023-12-20T01:24:22;101775.47;;;7.97;100.00
12247;BME280;6186;52.022;4.692;2023-12-20T01:26:47;101762.34;;;7.97;100.00
12247;BME280;6186;52.022;4.692;2023-12-20T01:29:12;101771.97;;;7.97;100.00
12247;BME280;6186;52.022;4.692;2023-12-20T01:31:37;101768.47;;;7.98;100.00
12247;BME280;6186;52.022;4.692;2023-12-20T01:34:03;101765.84;;;7.98;100.00
12247;BME280;6186;52.022;4.692;2023-12-20T01:36:28;101766.72;;;8.00;100.00
12247;BME280;6186;52.022;4.692;2023-12-20T01:38:53;101761.50;;;8.00;100.00
12247;BME280;6186;52.022;4.692;2023-12-20T01:41:18;101751.88;;;8.02;100.00
12247;BME280;6186;52.022;4.692;2023-12-20T01:43:44;101753.59;;;8.03;100.00
12247;BME280;6186;52.022;4.692;2023-12-20T01:46:09;101762.34;;;8.05;100.00
12247;BME280;6186;52.022;4.692;2023-12-20T01:48:34;101765.84;;;8.07;100.00
12247;BME280;6186;52.022;4.692;2023-12-20T01:51:00;101760.59;;;8.08;100.00
12247;BME280;6186;52.022;4.692;2023-12-20T01:53:27;101753.59;;;8.10;100.00
12247;BME280;6186;52.022;4.692;2023-12-20T01:55:54;101747.50;;;8.10;100.00
12247;BME280;6186;52.022;4.692;2023-12-20T01:58:21;101747.50;;;8.10;100.00
12247;BME280;6186;52.022;4.692;2023-12-20T02:00:47;101737.88;;;8.10;100.00
12247;BME280;6186;52.022;4.692;2023-12-20T02:03:13;101753.59;;;8.10;100.00
12247;BME280;6186;52.022;4.692;2023-12-20T02:05:38;101751.88;;;8.11;100.00
12247;BME280;6186;52.022;4.692;2023-12-20T02:08:04;101748.38;;;8.10;100.00
12247;BME280;6186;52.022;4.692;2023-12-20T02:10:29;101758.88;;;8.12;100.00
12247;BME280;6186;52.022;4.692;2023-12-20T02:12:55;101764.13;;;8.12;100.00
12247;BME280;6186;52.022;4.692;2023-12-20T02:15:20;101764.97;;;8.12;100.00
12247;BME280;6186;52.022;4.692;2023-12-20T02:17:47;101764.13;;;8.13;100.00
12247;BME280;6186;52.022;4.692;2023-12-20T02:20:12;101765.84;;;8.13;100.00
12247;BME280;6186;52.022;4.692;2023-12-20T02:22:37;101765.84;;;8.16;100.00
12247;BME280;6186;52.022;4.692;2023-12-20T02:25:03;101756.22;;;8.18;100.00
12247;BME280;6186;52.022;4.692;2023-12-20T02:27:29;101756.25;;;8.19;100.00
12247;BME280;6186;52.022;4.692;2023-12-20T02:29:54;101750.13;;;8.20;100.00
12247;BME280;6186;52.022;4.692;2023-12-20T02:32:20;101751.00;;;8.22;100.00
12247;BME280;6186;52.022;4.692;2023-12-20T02:34:49;101744.03;;;8.24;100.00
12247;BME280;6186;52.022;4.692;2023-12-20T02:37:14;101731.78;;;8.25;100.00
12247;BME280;6186;52.022;4.692;2023-12-20T02:39:40;101736.97;;;8.23;100.00
12247;BME280;6186;52.022;4.692;2023-12-20T02:42:05;101736.09;;;8.21;100.00
12247;BME280;6186;52.022;4.692;2023-12-20T02:44:30;101724.78;;;8.19;100.00
12247;BME280;6186;52.022;4.692;2023-12-20T02:46:55;101737.00;;;8.16;100.00
12247;BME280;6186;52.022;4.692;2023-12-20T02:49:21;101724.78;;;8.13;100.00
12247;BME280;6186;52.022;4.692;2023-12-20T02:51:46;101725.63;;;8.12;100.00
12247;BME280;6186;52.022;4.692;2023-12-20T02:54:11;101720.41;;;8.09;100.00
12247;BME280;6186;52.022;4.692;2023-12-20T02:56:36;101714.28;;;8.09;100.00
12247;BME280;6186;52.022;4.692;2023-12-20T02:59:01;101713.41;;;8.08;100.00
12247;BME280;6186;52.022;4.692;2023-12-20T03:01:28;101709.06;;;8.04;100.00
12247;BME280;6186;52.022;4.692;2023-12-20T03:03:53;101717.78;;;8.08;100.00
12247;BME280;6186;52.022;4.692;2023-12-20T03:06:19;101714.28;;;8.09;100.00
12247;BME280;6186;52.022;4.692;2023-12-20T03:08:44;101715.16;;;8.11;100.00
12247;BME280;6186;52.022;4.692;2023-12-20T03:11:10;101716.91;;;8.10;100.00
12247;BME280;6186;52.022;4.692;2023-12-20T03:13:35;101715.16;;;8.11;100.00
12247;BME280;6186;52.022;4.692;2023-12-20T03:16:00;101716.03;;;8.11;100.00
12247;BME280;6186;52.022;4.692;2023-12-20T03:18:25;101709.91;;;8.12;100.00
12247;BME280;6186;52.022;4.692;2023-12-20T03:20:51;101707.28;;;8.14;100.00
12247;BME280;6186;52.022;4.692;2023-12-20T03:23:16;101703.81;;;8.13;100.00
12247;BME280;6186;52.022;4.692;2023-12-20T03:25:42;101709.91;;;8.14;100.00
12247;BME280;6186;52.022;4.692;2023-12-20T03:28:07;101724.78;;;8.13;100.00
12247;BME280;6186;52.022;4.692;2023-12-20T03:30:32;101716.91;;;8.13;100.00
12247;BME280;6186;52.022;4.692;2023-12-20T03:32:57;101709.03;;;8.13;100.00
12247;BME280;6186;52.022;4.692;2023-12-20T03:35:22;101711.66;;;8.13;100.00
12247;BME280;6186;52.022;4.692;2023-12-20T03:37:48;101723.00;;;8.14;100.00
12247;BME280;6186;52.022;4.692;2023-12-20T03:40:13;101712.50;;;8.14;100.00
12247;BME280;6186;52.022;4.692;2023-12-20T03:42:38;101711.66;;;8.09;100.00
12247;BME280;6186;52.022;4.692;2023-12-20T03:45:03;101705.53;;;8.13;100.00
12247;BME280;6186;52.022;4.692;2023-12-20T03:47:29;101705.53;;;8.13;100.00
12247;BME280;6186;52.022;4.692;2023-12-20T03:49:54;101706.44;;;8.12;100.00
12247;BME280;6186;52.022;4.692;2023-12-20T03:52:19;101713.41;;;8.11;100.00
12247;BME280;6186;52.022;4.692;2023-12-20T03:54:44;101707.28;;;8.11;100.00
12247;BME280;6186;52.022;4.692;2023-12-20T03:57:10;101698.56;;;8.09;100.00
12247;BME280;6186;52.022;4.692;2023-12-20T03:59:36;101688.09;;;8.06;100.00
12247;BME280;6186;52.022;4.692;2023-12-20T04:02:01;101690.69;;;8.06;100.00
12247;BME280;6186;52.022;4.692;2023-12-20T04:04:27;101709.91;;;8.05;100.00
12247;BME280;6186;52.022;4.692;2023-12-20T04:06:52;101701.19;;;8.00;100.00
12247;BME280;6186;52.022;4.692;2023-12-20T04:09:17;101701.19;;;8.03;100.00
12247;BME280;6186;52.022;4.692;2023-12-20T04:11:42;101705.56;;;8.04;100.00
12247;BME280;6186;52.022;4.692;2023-12-20T04:14:08;101708.19;;;8.05;100.00
12247;BME280;6186;52.022;4.692;2023-12-20T04:16:33;101698.56;;;8.07;100.00
12247;BME280;6186;52.022;4.692;2023-12-20T04:18:58;101703.78;;;8.09;100.00
12247;BME280;6186;52.022;4.692;2023-12-20T04:21:23;101701.19;;;8.12;100.00
12247;BME280;6186;52.022;4.692;2023-12-20T04:23:49;101700.28;;;8.13;100.00
12247;BME280;6186;52.022;4.692;2023-12-20T04:26:14;101706.44;;;8.13;100.00
12247;BME280;6186;52.022;4.692;2023-12-20T04:28:39;101689.81;;;8.10;100.00
12247;BME280;6186;52.022;4.692;2023-12-20T04:31:04;101698.53;;;8.15;100.00
12247;BME280;6186;52.022;4.692;2023-12-20T04:33:29;101711.66;;;8.13;100.00
12247;BME280;6186;52.022;4.692;2023-12-20T04:35:55;101689.81;;;8.11;100.00
12247;BME280;6186;52.022;4.692;2023-12-20T04:38:20;101696.78;;;8.12;100.00
12247;BME280;6186;52.022;4.692;2023-12-20T04:40:45;101688.94;;;8.09;100.00
12247;BME280;6186;52.022;4.692;2023-12-20T04:43:10;101691.56;;;8.08;100.00
12247;BME280;6186;52.022;4.692;2023-12-20T04:45:36;101678.44;;;8.05;100.00
12247;BME280;6186;52.022;4.692;2023-12-20T04:48:01;101686.31;;;8.03;100.00
12247;BME280;6186;52.022;4.692;2023-12-20T04:50:27;101681.09;;;8.00;100.00
12247;BME280;6186;52.022;4.692;2023-12-20T04:52:52;101690.69;;;7.97;100.00
12247;BME280;6186;52.022;4.692;2023-12-20T04:55:17;101679.38;;;7.95;100.00
12247;BME280;6186;52.022;4.692;2023-12-20T04:57:42;101680.22;;;7.94;100.00
12247;BME280;6186;52.022;4.692;2023-12-20T05:00:08;101686.34;;;7.93;100.00
12247;BME280;6186;52.022;4.692;2023-12-20T05:02:34;101689.84;;;7.95;100.00
12247;BME280;6186;52.022;4.692;2023-12-20T05:04:59;101685.47;;;7.94;100.00
12247;BME280;6186;52.022;4.692;2023-12-20T05:07:25;101690.69;;;7.95;100.00
12247;BME280;6186;52.022;4.692;2023-12-20T05:09:50;101695.94;;;7.97;100.00
12247;BME280;6186;52.022;4.692;2023-12-20T05:12:15;101690.69;;;7.97;100.00
12247;BME280;6186;52.022;4.692;2023-12-20T05:14:40;101690.69;;;7.97;100.00
12247;BME280;6186;52.022;4.692;2023-12-20T05:17:05;101695.97;;;7.98;100.00
12247;BME280;6186;52.022;4.692;2023-12-20T05:19:31;101695.97;;;7.98;100.00
12247;BME280;6186;52.022;4.692;2023-12-20T05:21:56;101688.09;;;7.91;100.00
12247;BME280;6186;52.022;4.692;2023-12-20T05:24:21;101688.94;;;7.97;100.00
12247;BME280;6186;52.022;4.692;2023-12-20T05:26:46;101697.69;;;7.98;100.00
12247;BME280;6186;52.022;4.692;2023-12-20T05:29:12;101701.19;;;7.98;100.00
12247;BME280;6186;52.022;4.692;2023-12-20T05:31:37;101688.09;;;8.00;100.00
12247;BME280;6186;52.022;4.692;2023-12-20T05:34:02;101694.19;;;8.02;100.00
12247;BME280;6186;52.022;4.692;2023-12-20T05:36:27;101705.56;;;8.04;100.00
12247;BME280;6186;52.022;4.692;2023-12-20T05:38:52;101687.19;;;8.07;100.00
12247;BME280;6186;52.022;4.692;2023-12-20T05:41:18;101688.06;;;8.09;100.00
12247;BME280;6186;52.022;4.692;2023-12-20T05:43:43;101690.69;;;8.12;100.00
12247;BME280;6186;52.022;4.692;2023-12-20T05:46:10;101680.22;;;8.12;100.00
12247;BME280;6186;52.022;4.692;2023-12-20T05:48:35;101683.69;;;8.17;100.00
12247;BME280;6186;52.022;4.692;2023-12-20T05:51:01;101680.16;;;8.18;100.00
12247;BME280;6186;52.022;4.692;2023-12-20T05:53:26;101679.31;;;8.19;100.00
12247;BME280;6186;52.022;4.692;2023-12-20T05:55:51;101673.16;;;8.21;100.00
12247;BME280;6186;52.022;4.692;2023-12-20T05:58:16;101673.19;;;8.23;100.00
12247;BME280;6186;52.022;4.692;2023-12-20T06:00:41;101676.72;;;8.25;100.00
12247;BME280;6186;52.022;4.692;2023-12-20T06:03:07;101688.94;;;8.26;100.00
12247;BME280;6186;52.022;4.692;2023-12-20T06:05:32;101693.31;;;8.27;100.00
12247;BME280;6186;52.022;4.692;2023-12-20T06:07:57;101688.91;;;8.29;100.00
12247;BME280;6186;52.022;4.692;2023-12-20T06:10:22;101684.56;;;8.26;100.00
12247;BME280;6186;52.022;4.692;2023-12-20T06:12:48;101688.06;;;8.30;100.00
12247;BME280;6186;52.022;4.692;2023-12-20T06:15:13;101683.69;;;8.27;100.00
12247;BME280;6186;52.022;4.692;2023-12-20T06:17:38;101689.81;;;8.34;100.00
12247;BME280;6186;52.022;4.692;2023-12-20T06:20:04;101696.78;;;8.35;100.00
12247;BME280;6186;52.022;4.692;2023-12-20T06:22:29;101677.56;;;8.36;100.00
12247;BME280;6186;52.022;4.692;2023-12-20T06:24:54;101679.31;;;8.34;100.00
12247;BME280;6186;52.022;4.692;2023-12-20T06:27:19;101688.03;;;8.33;100.00
12247;BME280;6186;52.022;4.692;2023-12-20T06:29:45;101686.31;;;8.38;100.00
12247;BME280;6186;52.022;4.692;2023-12-20T06:32:10;101697.63;;;8.38;100.00
12247;BME280;6186;52.022;4.692;2023-12-20T06:34:35;101666.19;;;8.34;100.00
12247;BME280;6186;52.022;4.692;2023-12-20T06:37:01;101674.91;;;8.40;100.00
12247;BME280;6186;52.022;4.692;2023-12-20T06:39:26;101684.53;;;8.41;100.00
12247;BME280;6186;52.022;4.692;2023-12-20T06:41:51;101680.16;;;8.42;100.00
12247;BME280;6186;52.022;4.692;2023-12-20T06:44:16;101675.78;;;8.44;100.00
12247;BME280;6186;52.022;4.692;2023-12-20T06:46:44;101672.28;;;8.45;100.00
12247;BME280;6186;52.022;4.692;2023-12-20T06:49:09;101670.56;;;8.44;100.00
12247;BME280;6186;52.022;4.692;2023-12-20T06:51:34;101668.78;;;8.47;100.00
12247;BME280;6186;52.022;4.692;2023-12-20T06:53:59;101671.41;;;8.47;100.00
12247;BME280;6186;52.022;4.692;2023-12-20T06:56:24;101662.63;;;8.50;100.00
12247;BME280;6186;52.022;4.692;2023-12-20T06:58:50;101661.78;;;8.51;100.00
12247;BME280;6186;52.022;4.692;2023-12-20T07:01:15;101660.00;;;8.48;100.00
12247;BME280;6186;52.022;4.692;2023-12-20T07:03:41;101647.78;;;8.50;100.00
12247;BME280;6186;52.022;4.692;2023-12-20T07:06:06;101658.25;;;8.52;100.00
12247;BME280;6186;52.022;4.692;2023-12-20T07:08:31;101649.53;;;8.51;100.00
12247;BME280;6186;52.022;4.692;2023-12-20T07:10:57;101652.16;;;8.53;100.00
12247;BME280;6186;52.022;4.692;2023-12-20T07:13:22;101649.53;;;8.53;100.00
12247;BME280;6186;52.022;4.692;2023-12-20T07:15:47;101648.63;;;8.54;100.00
12247;BME280;6186;52.022;4.692;2023-12-20T07:18:13;101640.78;;;8.49;100.00
12247;BME280;6186;52.022;4.692;2023-12-20T07:20:38;101637.28;;;8.50;100.00
12247;BME280;6186;52.022;4.692;2023-12-20T07:23:03;101628.53;;;8.50;100.00
12247;BME280;6186;52.022;4.692;2023-12-20T07:25:28;101628.53;;;8.47;100.00
12247;BME280;6186;52.022;4.692;2023-12-20T07:27:53;101635.56;;;8.45;100.00
12247;BME280;6186;52.022;4.692;2023-12-20T07:30:19;101626.81;;;8.41;100.00
12247;BME280;6186;52.022;4.692;2023-12-20T07:32:44;101637.31;;;8.40;100.00
12247;BME280;6186;52.022;4.692;2023-12-20T07:35:09;101629.44;;;8.38;100.00
12247;BME280;6186;52.022;4.692;2023-12-20T07:37:34;101639.09;;;8.38;100.00
12247;BME280;6186;52.022;4.692;2023-12-20T07:40:00;101651.31;;;8.37;100.00
12247;BME280;6186;52.022;4.692;2023-12-20T07:42:25;101639.97;;;8.32;100.00
12247;BME280;6186;52.022;4.692;2023-12-20T07:44:50;101659.19;;;8.36;100.00
12247;BME280;6186;52.022;4.692;2023-12-20T07:47:15;101655.69;;;8.35;100.00
12247;BME280;6186;52.022;4.692;2023-12-20T07:49:41;101653.06;;;8.37;100.00
12247;BME280;6186;52.022;4.692;2023-12-20T07:52:06;101660.91;;;8.38;100.00
12247;BME280;6186;52.022;4.692;2023-12-20T07:54:31;101655.69;;;8.40;100.00
12247;BME280;6186;52.022;4.692;2023-12-20T07:56:57;101658.31;;;8.40;100.00
12247;BME280;6186;52.022;4.692;2023-12-20T07:59:22;101668.78;;;8.43;100.00
12247;BME280;6186;52.022;4.692;2023-12-20T08:01:47;101674.03;;;8.44;100.00
12247;BME280;6186;52.022;4.692;2023-12-20T08:04:12;101677.50;;;8.48;100.00
12247;BME280;6186;52.022;4.692;2023-12-20T08:06:38;101679.25;;;8.49;100.00
12247;BME280;6186;52.022;4.692;2023-12-20T08:09:03;101683.63;;;8.50;100.00
12247;BME280;6186;52.022;4.692;2023-12-20T08:11:28;101674.00;;;8.52;100.00
12247;BME280;6186;52.022;4.692;2023-12-20T08:13:53;101676.63;;;8.55;100.00
12247;BME280;6186;52.022;4.692;2023-12-20T08:16:19;101684.47;;;8.58;100.00
12247;BME280;6186;52.022;4.692;2023-12-20T08:18:44;101684.47;;;8.60;100.00
12247;BME280;6186;52.022;4.692;2023-12-20T08:21:09;101686.22;;;8.62;100.00
12247;BME280;6186;52.022;4.692;2023-12-20T08:23:34;101674.84;;;8.65;100.00
12247;BME280;6186;52.022;4.692;2023-12-20T08:26:04;101679.19;;;8.67;100.00
12247;BME280;6186;52.022;4.692;2023-12-20T08:28:30;101674.78;;;8.71;100.00
12247;BME280;6186;52.022;4.692;2023-12-20T08:30:55;101668.66;;;8.73;100.00
12247;BME280;6186;52.022;4.692;2023-12-20T08:33:20;101675.69;;;8.74;100.00
12247;BME280;6186;52.022;4.692;2023-12-20T08:35:45;101664.28;;;8.77;100.00
12247;BME280;6186;52.022;4.692;2023-12-20T08:38:11;101659.91;;;8.77;100.00
12247;BME280;6186;52.022;4.692;2023-12-20T08:40:36;101665.16;;;8.77;100.00
12247;BME280;6186;52.022;4.692;2023-12-20T08:43:01;101653.78;;;8.80;100.00
12247;BME280;6186;52.022;4.692;2023-12-20T08:45:26;101679.13;;;8.81;100.00
12247;BME280;6186;52.022;4.692;2023-12-20T08:47:52;101667.81;;;8.74;100.00
12247;BME280;6186;52.022;4.692;2023-12-20T08:50:17;101677.38;;;8.81;100.00
12247;BME280;6186;52.022;4.692;2023-12-20T08:52:42;101670.38;;;8.83;100.00
12247;BME280;6186;52.022;4.692;2023-12-20T08:55:07;101672.13;;;8.83;100.00
12247;BME280;6186;52.022;4.692;2023-12-20T08:57:33;101676.47;;;8.87;100.00
12247;BME280;6186;52.022;4.692;2023-12-20T08:59:58;101669.47;;;8.89;100.00
12247;BME280;6186;52.022;4.692;2023-12-20T09:02:23;101672.09;;;8.90;100.00
12247;BME280;6186;52.022;4.692;2023-12-20T09:04:48;101665.06;;;8.92;100.00
12247;BME280;6186;52.022;4.692;2023-12-20T09:07:26;101665.03;;;8.95;100.00
12247;BME280;6186;52.022;4.692;2023-12-20T09:09:52;101669.44;;;8.96;100.00
12247;BME280;6186;52.022;4.692;2023-12-20T09:12:19;101658.03;;;9.00;100.00
12247;BME280;6186;52.022;4.692;2023-12-20T09:14:45;101665.00;;;9.03;100.00
12247;BME280;6186;52.022;4.692;2023-12-20T09:17:10;101659.75;;;9.06;100.00
12247;BME280;6186;52.022;4.692;2023-12-20T09:19:36;101656.25;;;9.08;100.00
12247;BME280;6186;52.022;4.692;2023-12-20T09:22:01;101648.38;;;9.08;100.00
12247;BME280;6186;52.022;4.692;2023-12-20T09:24:26;101648.34;;;9.10;100.00
12247;BME280;6186;52.022;4.692;2023-12-20T09:26:51;101650.06;;;9.11;100.00
12247;BME280;6186;52.022;4.692;2023-12-20T09:29:17;101643.97;;;9.12;100.00
12247;BME280;6186;52.022;4.692;2023-12-20T09:31:42;101655.31;;;9.15;100.00
12247;BME280;6186;52.022;4.692;2023-12-20T09:34:07;101651.78;;;9.16;100.00
12247;BME280;6186;52.022;4.692;2023-12-20T09:36:32;101657.03;;;9.19;100.00
12247;BME280;6186;52.022;4.692;2023-12-20T09:38:57;101658.78;;;9.20;100.00
12247;BME280;6186;52.022;4.692;2023-12-20T09:41:24;101668.38;;;9.24;100.00
12247;BME280;6186;52.022;4.692;2023-12-20T09:43:51;101667.50;;;9.27;100.00
12247;BME280;6186;52.022;4.692;2023-12-20T09:46:24;101656.06;;;9.29;100.00
12247;BME280;6186;52.022;4.692;2023-12-20T09:48:52;101656.09;;;9.31;100.00
12247;BME280;6186;52.022;4.692;2023-12-20T09:51:18;101665.69;;;9.33;100.00
12247;BME280;6186;52.022;4.692;2023-12-20T09:53:45;101671.84;;;9.32;100.00
12247;BME280;6186;52.022;4.692;2023-12-20T09:56:12;101678.81;;;9.33;100.00
12247;BME280;6186;52.022;4.692;2023-12-20T09:58:38;101687.56;;;9.38;100.00
12247;BME280;6186;52.022;4.692;2023-12-20T10:01:03;101677.03;;;9.41;100.00
12247;BME280;6186;52.022;4.692;2023-12-20T10:03:30;101688.38;;;9.46;100.00
12247;BME280;6186;52.022;4.692;2023-12-20T10:05:56;101670.84;;;9.47;100.00
12247;BME280;6186;52.022;4.692;2023-12-20T10:08:22;101664.72;;;9.49;100.00
12247;BME280;6186;52.022;4.692;2023-12-20T10:10:47;101677.81;;;9.52;100.00
12247;BME280;6186;52.022;4.692;2023-12-20T10:13:13;101676.94;;;9.55;100.00
12247;BME280;6186;52.022;4.692;2023-12-20T10:15:38;101673.38;;;9.58;100.00
12247;BME280;6186;52.022;4.692;2023-12-20T10:18:04;101673.38;;;9.58;100.00
12247;BME280;6186;52.022;4.692;2023-12-20T10:20:30;101673.38;;;9.58;100.00
12247;BME280;6186;52.022;4.692;2023-12-20T10:22:56;101681.25;;;9.61;100.00
12247;BME280;6186;52.022;4.692;2023-12-20T10:25:22;101682.13;;;9.63;100.00
12247;BME280;6186;52.022;4.692;2023-12-20T10:27:47;101675.97;;;9.67;100.00
12247;BME280;6186;52.022;4.692;2023-12-20T10:30:15;101669.81;;;9.68;100.00
12247;BME280;6186;52.022;4.692;2023-12-20T10:32:41;101671.56;;;9.70;100.00
12247;BME280;6186;52.022;4.692;2023-12-20T10:35:07;101667.16;;;9.72;100.00
12247;BME280;6186;52.022;4.692;2023-12-20T10:37:37;101666.28;;;9.72;100.00
12247;BME280;6186;52.022;4.692;2023-12-20T10:40:03;101674.13;;;9.75;100.00
12247;BME280;6186;52.022;4.692;2023-12-20T10:42:29;101659.25;;;9.74;100.00
12247;BME280;6186;52.022;4.692;2023-12-20T10:44:56;101660.97;;;9.75;100.00
12247;BME280;6186;52.022;4.692;2023-12-20T10:47:22;101646.13;;;9.72;100.00
12247;BME280;6186;52.022;4.692;2023-12-20T10:49:47;101639.06;;;9.77;100.00
12247;BME280;6186;52.022;4.692;2023-12-20T10:52:13;101652.19;;;9.79;100.00
12247;BME280;6186;52.022;4.692;2023-12-20T10:54:41;101645.16;;;9.79;100.00
12247;BME280;6186;52.022;4.692;2023-12-20T10:57:07;101645.13;;;9.82;100.00
12247;BME280;6186;52.022;4.692;2023-12-20T10:59:39;101643.34;;;9.84;100.00
12247;BME280;6186;52.022;4.692;2023-12-20T11:02:05;101636.34;;;9.86;100.00
12247;BME280;6186;52.022;4.692;2023-12-20T11:04:44;101624.91;;;9.89;100.00
12247;BME280;6186;52.022;4.692;2023-12-20T11:07:43;101633.69;;;9.89;100.00
12247;BME280;6186;52.022;4.692;2023-12-20T11:10:23;101631.03;;;9.91;100.00
12247;BME280;6186;52.022;4.692;2023-12-20T11:13:12;101626.66;;;9.91;100.00
12247;BME280;6186;52.022;4.692;2023-12-20T11:15:40;101626.63;;;9.93;100.00
12247;BME280;6186;52.022;4.692;2023-12-20T11:18:06;101620.47;;;9.94;100.00
12247;BME280;6186;52.022;4.692;2023-12-20T11:20:39;101604.72;;;9.92;100.00
12247;BME280;6186;52.022;4.692;2023-12-20T11:23:05;101614.31;;;9.96;100.00
12247;BME280;6186;52.022;4.692;2023-12-20T11:25:46;101618.69;;;9.99;100.00
12247;BME280;6186;52.022;4.692;2023-12-20T11:28:12;101616.94;;;9.96;100.00
12247;BME280;6186;52.022;4.692;2023-12-20T11:30:41;101628.38;;;9.95;100.00
12247;BME280;6186;52.022;4.692;2023-12-20T11:33:08;101610.88;;;9.91;100.00
12247;BME280;6186;52.022;4.692;2023-12-20T11:35:33;101607.34;;;9.95;100.00
12247;BME280;6186;52.022;4.692;2023-12-20T11:37:58;101606.41;;;9.98;100.00
12247;BME280;6186;52.022;4.692;2023-12-20T11:40:23;101590.63;;;10.01;100.00
12247;BME280;6186;52.022;4.692;2023-12-20T11:42:50;101594.06;;;10.06;100.00
12247;BME280;6186;52.022;4.692;2023-12-20T11:45:18;101587.91;;;10.05;100.00
12247;BME280;6186;52.022;4.692;2023-12-20T11:47:46;101596.66;;;10.12;100.00
12247;BME280;6186;52.022;4.692;2023-12-20T11:50:12;101592.28;;;10.12;100.00
12247;BME280;6186;52.022;4.692;2023-12-20T11:52:37;101587.00;;;10.11;100.00
12247;BME280;6186;52.022;4.692;2023-12-20T11:55:03;101580.03;;;10.10;100.00
12247;BME280;6186;52.022;4.692;2023-12-20T11:57:28;101588.75;;;10.09;100.00
12247;BME280;6186;52.022;4.692;2023-12-20T11:59:53;101593.19;;;10.10;100.00
12247;BME280;6186;52.022;4.692;2023-12-20T12:02:19;101588.75;;;10.09;100.00
12247;BME280;6186;52.022;4.692;2023-12-20T12:04:44;101592.28;;;10.11;100.00
12247;BME280;6186;52.022;4.692;2023-12-20T12:07:09;101587.88;;;10.11;100.00
12247;BME280;6186;52.022;4.692;2023-12-20T12:09:35;101592.28;;;10.11;100.00
12247;BME280;6186;52.022;4.692;2023-12-20T12:12:00;101594.03;;;10.12;100.00
12247;BME280;6186;52.022;4.692;2023-12-20T12:14:26;101594.03;;;10.12;100.00
12247;BME280;6186;52.022;4.692;2023-12-20T12:16:51;101586.13;;;10.13;100.00
12247;BME280;6186;52.022;4.692;2023-12-20T12:19:24;101572.91;;;10.16;100.00
12247;BME280;6186;52.022;4.692;2023-12-20T12:21:50;101579.03;;;10.18;100.00
12247;BME280;6186;52.022;4.692;2023-12-20T12:24:20;101578.19;;;10.18;100.00
12247;BME280;6186;52.022;4.692;2023-12-20T12:26:50;101572.91;;;10.18;100.00
12247;BME280;6186;52.022;4.692;2023-12-20T12:29:15;101573.78;;;10.18;100.00
12247;BME280;6186;52.022;4.692;2023-12-20T12:31:40;101566.75;;;10.19;100.00
12247;BME280;6186;52.022;4.692;2023-12-20T12:34:06;101560.56;;;10.23;100.00
12247;BME280;6186;52.022;4.692;2023-12-20T12:36:32;101557.91;;;10.24;100.00
12247;BME280;6186;52.022;4.692;2023-12-20T12:38:57;101561.41;;;10.26;100.00
12247;BME280;6186;52.022;4.692;2023-12-20T12:41:22;101553.47;;;10.28;100.00
12247;BME280;6186;52.022;4.692;2023-12-20T12:43:47;101556.94;;;10.31;100.00
12247;BME280;6186;52.022;4.692;2023-12-20T12:46:13;101543.78;;;10.33;100.00
12247;BME280;6186;52.022;4.692;2023-12-20T12:48:38;101541.09;;;10.36;100.00
12247;BME280;6186;52.022;4.692;2023-12-20T12:51:04;101540.22;;;10.37;100.00
12247;BME280;6186;52.022;4.692;2023-12-20T12:53:29;101539.31;;;10.38;100.00